Time;durP1;ratioP1;P1;durP2;ratioP2;P2;SDS_P1;SDS_P2;PMS_P1;PMS_P2;Temp;Humidity;BMP_temperature;BMP_pressure;BME280_temperature;BME280_humidity;BME280_pressure;Samples;Min_cycle;Max_cycle;Signal;HPM_P1;HPM_P2
2021/01/27 00:00:48;;;;;;;3.73;3.17;;;0.60;99.90;;;;;;5053291;28;20778;-84
2021/01/27 00:03:14;;;;;;;3.87;3.50;;;0.80;99.90;;;;;;5052372;28;20937;-85
2021/01/27 00:05:43;;;;;;;3.00;2.60;;;0.60;99.90;;;;;;5052438;28;20422;-84
2021/01/27 00:08:08;;;;;;;3.03;2.83;;;0.80;99.90;;;;;;5052357;28;20509;-83
2021/01/27 00:10:35;;;;;;;2.60;2.37;;;0.40;99.90;;;;;;5052513;28;20577;-83
2021/01/27 00:13:02;;;;;;;5.30;4.90;;;0.50;99.90;;;;;;5053721;28;20179;-84
2021/01/27 00:15:30;;;;;;;3.57;3.20;;;0.60;99.90;;;;;;5052140;28;20450;-84
2021/01/27 00:17:56;;;;;;;3.03;2.53;;;1.00;99.90;;;;;;5053502;28;20427;-83
2021/01/27 00:20:25;;;;;;;3.80;3.40;;;0.60;99.90;;;;;;5052119;28;20774;-84
2021/01/27 00:22:51;;;;;;;2.90;2.70;;;0.90;99.90;;;;;;5053552;28;20182;-83
2021/01/27 00:25:20;;;;;;;3.17;2.97;;;0.90;99.90;;;;;;5051939;28;20418;-84
2021/01/27 00:27:46;;;;;;;3.70;2.80;;;0.80;99.90;;;;;;5053501;28;20518;-83
2021/01/27 00:30:20;;;;;;;2.80;2.60;;;0.40;99.90;;;;;;5052154;28;20517;-83
2021/01/27 00:32:46;;;;;;;3.40;3.10;;;0.90;99.90;;;;;;5052165;28;20690;-84
2021/01/27 00:35:13;;;;;;;3.30;2.70;;;0.40;99.90;;;;;;5053451;28;20410;-83
2021/01/27 00:37:39;;;;;;;4.10;2.80;;;0.60;99.90;;;;;;5052065;28;20837;-84
2021/01/27 00:40:06;;;;;;;3.57;2.93;;;0.10;99.90;;;;;;5052259;28;20418;-84
2021/01/27 00:42:32;;;;;;;3.03;2.60;;;0.60;99.90;;;;;;5051981;28;20487;-84
2021/01/27 00:44:58;;;;;;;4.50;4.00;;;0.40;99.90;;;;;;5056011;28;20422;-83
2021/01/27 00:47:23;;;;;;;3.70;3.23;;;0.20;99.90;;;;;;5056194;28;20418;-83
2021/01/27 00:49:49;;;;;;;4.10;3.57;;;0.30;99.90;;;;;;5056270;28;20261;-83
2021/01/27 00:52:14;;;;;;;4.13;3.73;;;0.10;99.90;;;;;;5056088;28;20179;-83
2021/01/27 00:54:40;;;;;;;4.63;4.00;;;0.00;99.90;;;;;;5056081;28;20627;-83
2021/01/27 00:57:05;;;;;;;4.30;3.90;;;0.50;99.90;;;;;;5055882;28;20243;-83
2021/01/27 00:59:31;;;;;;;5.80;3.90;;;0.50;99.90;;;;;;5056089;28;20172;-84
2021/01/27 01:01:57;;;;;;;4.20;3.77;;;0.20;99.90;;;;;;5057203;28;20206;-84
2021/01/27 01:04:22;;;;;;;5.83;3.50;;;0.40;99.90;;;;;;5055714;28;20187;-83
2021/01/27 01:06:48;;;;;;;5.20;4.03;;;0.10;99.90;;;;;;5055887;28;20267;-84
2021/01/27 01:09:13;;;;;;;13.70;3.67;;;-0.10;99.90;;;;;;5055649;28;20697;-83
2021/01/27 01:11:39;;;;;;;5.43;3.70;;;0.60;99.90;;;;;;5055917;28;20194;-84
2021/01/27 01:14:05;;;;;;;3.67;3.30;;;0.30;99.90;;;;;;5055668;28;20203;-84
2021/01/27 01:16:30;;;;;;;5.17;4.30;;;0.30;99.90;;;;;;5055694;28;20223;-83
2021/01/27 01:18:56;;;;;;;5.70;4.33;;;0.20;99.90;;;;;;5055591;28;20639;-83
2021/01/27 01:21:21;;;;;;;2.40;2.20;;;0.40;99.90;;;;;;5056773;28;20183;-83
2021/01/27 01:23:47;;;;;;;6.50;4.47;;;-0.10;99.90;;;;;;5055580;28;20179;-84
2021/01/27 01:26:13;;;;;;;5.13;4.10;;;0.00;99.90;;;;;;5055681;28;20180;-84
2021/01/27 01:28:38;;;;;;;4.77;4.00;;;0.30;99.90;;;;;;5055650;28;20182;-84
2021/01/27 01:31:04;;;;;;;5.60;4.30;;;0.00;99.90;;;;;;5055273;28;20310;-83
2021/01/27 01:33:32;;;;;;;5.83;4.63;;;-0.10;99.90;;;;;;5055429;28;20180;-84
2021/01/27 01:35:59;;;;;;;5.13;4.63;;;0.40;99.90;;;;;;5056377;28;20216;-83
2021/01/27 01:38:25;;;;;;;4.17;3.77;;;0.00;99.90;;;;;;5055184;28;20433;-84
2021/01/27 01:40:54;;;;;;;5.13;4.63;;;0.00;99.90;;;;;;5055307;28;20484;-84
2021/01/27 01:43:26;;;;;;;3.57;3.20;;;0.40;99.90;;;;;;5055311;28;20501;-83
2021/01/27 01:45:54;;;;;;;5.90;5.40;;;0.40;99.90;;;;;;5055170;28;20422;-84
2021/01/27 01:48:39;;;;;;;4.50;4.10;;;0.40;99.90;;;;;;5055010;28;20422;-84
2021/01/27 01:51:16;;;;;;;7.20;4.77;;;0.40;99.90;;;;;;5054931;28;20425;-83
2021/01/27 01:53:42;;;;;;;5.03;4.10;;;0.40;99.90;;;;;;5054348;28;20554;-83
2021/01/27 01:56:13;;;;;;;5.63;3.67;;;0.00;99.90;;;;;;5055937;28;20890;-84
2021/01/27 01:58:40;;;;;;;4.63;4.30;;;0.10;99.90;;;;;;5055047;28;20180;-84
2021/01/27 02:01:06;;;;;;;4.20;3.60;;;0.60;99.90;;;;;;5056314;28;20406;-84
2021/01/27 02:03:33;;;;;;;4.73;4.30;;;0.00;99.90;;;;;;5054762;28;20433;-84
2021/01/27 02:06:08;;;;;;;7.73;3.63;;;0.30;99.90;;;;;;5054720;28;20944;-83
2021/01/27 02:08:37;;;;;;;4.13;3.70;;;0.40;99.90;;;;;;5054835;28;20421;-83
2021/01/27 02:11:03;;;;;;;4.30;3.80;;;0.10;99.90;;;;;;5055976;28;20403;-82
2021/01/27 02:13:34;;;;;;;5.30;4.33;;;-0.10;99.90;;;;;;5054635;28;20430;-83
2021/01/27 02:16:32;;;;;;;4.23;2.97;;;0.60;99.90;;;;;;5054563;28;20555;-83
2021/01/27 02:19:53;;;;;;;3.90;3.50;;;0.40;99.90;;;;;;5052194;28;20482;-83
2021/01/27 02:22:34;;;;;;;4.13;3.73;;;0.50;99.90;;;;;;5054484;28;20422;-83
2021/01/27 02:25:21;;;;;;;4.27;3.87;;;0.20;99.90;;;;;;5054431;28;20979;-84
2021/01/27 02:27:53;;;;;;;4.70;3.80;;;0.50;99.90;;;;;;5054364;28;20790;-84
2021/01/27 02:30:44;;;;;;;2.50;2.20;;;0.60;99.90;;;;;;5054323;28;20410;-83
2021/01/27 02:33:34;;;;;;;7.23;3.60;;;0.40;99.90;;;;;;5054285;28;20456;-83
2021/01/27 02:36:26;;;;;;;5.13;4.10;;;0.30;99.90;;;;;;5054106;28;20509;-84
2021/01/27 02:39:18;;;;;;;5.20;3.60;;;0.10;99.90;;;;;;5053659;28;20418;-84
2021/01/27 02:42:04;;;;;;;4.40;4.00;;;0.40;99.90;;;;;;5046769;28;20474;-83
2021/01/27 02:44:42;;;;;;;4.30;3.90;;;0.30;99.90;;;;;;5054121;28;20453;-84
2021/01/27 02:47:23;;;;;;;4.17;3.87;;;-0.10;99.90;;;;;;5053867;28;20513;-84
2021/01/27 02:49:56;;;;;;;4.80;3.83;;;0.30;99.90;;;;;;5053981;28;20488;-84
2021/01/27 02:52:47;;;;;;;3.93;3.50;;;-0.10;99.90;;;;;;5053818;28;20426;-83
2021/01/27 02:55:36;;;;;;;4.60;3.57;;;0.20;99.90;;;;;;5053767;28;20438;-84
2021/01/27 02:58:10;;;;;;;6.10;4.47;;;0.20;99.90;;;;;;5053807;28;20430;-84
2021/01/27 03:00:41;;;;;;;4.50;3.10;;;0.10;99.90;;;;;;5053689;28;20484;-83
2021/01/27 03:03:27;;;;;;;4.10;3.73;;;-0.10;99.90;;;;;;5053577;28;20469;-83
2021/01/27 03:05:59;;;;;;;5.37;3.83;;;0.50;99.90;;;;;;5053917;28;20480;-83
2021/01/27 03:08:28;;;;;;;4.50;2.93;;;0.50;99.90;;;;;;5054704;28;20502;-84
2021/01/27 03:10:54;;;;;;;4.37;3.97;;;-0.10;99.90;;;;;;5053608;28;20426;-84
2021/01/27 03:13:19;;;;;;;3.80;3.50;;;0.10;99.90;;;;;;5053416;28;20426;-83
2021/01/27 03:15:45;;;;;;;5.47;3.67;;;0.10;99.90;;;;;;5053025;28;20272;-83
2021/01/27 03:18:17;;;;;;;2.83;2.60;;;0.40;99.90;;;;;;5053892;28;20179;-84
2021/01/27 03:20:46;;;;;;;4.57;4.17;;;0.50;99.90;;;;;;5054314;28;20172;-83
2021/01/27 03:23:20;;;;;;;3.73;3.43;;;0.50;99.90;;;;;;5053433;28;20500;-83
2021/01/27 03:26:05;;;;;;;3.57;3.20;;;0.50;99.90;;;;;;5054408;28;20402;-83
2021/01/27 03:28:35;;;;;;;3.57;3.27;;;0.30;99.90;;;;;;5052892;28;20932;-83
2021/01/27 03:31:01;;;;;;;5.23;3.87;;;0.50;99.90;;;;;;5054320;28;20479;-83
2021/01/27 03:33:35;;;;;;;4.57;4.20;;;0.00;99.90;;;;;;5052982;28;20513;-84
2021/01/27 03:36:05;;;;;;;4.47;4.00;;;0.00;99.90;;;;;;5052800;28;20215;-84
2021/01/27 03:38:32;;;;;;;3.83;3.43;;;0.40;99.90;;;;;;5053976;28;20476;-83
2021/01/27 03:41:30;;;;;;;4.27;3.87;;;-0.10;99.90;;;;;;5052622;28;20426;-83
2021/01/27 03:44:08;;;;;;;4.90;4.50;;;0.30;99.90;;;;;;5052763;28;20498;-83
2021/01/27 03:46:39;;;;;;;4.27;3.80;;;0.50;99.90;;;;;;5052838;28;20469;-83
2021/01/27 03:49:22;;;;;;;4.23;3.83;;;0.40;99.90;;;;;;5052822;28;20778;-83
2021/01/27 03:51:56;;;;;;;9.33;5.03;;;0.50;99.90;;;;;;5052763;28;20426;-83
2021/01/27 03:54:26;;;;;;;7.00;5.90;;;0.40;99.90;;;;;;5052633;28;20423;-84
2021/01/27 03:57:00;;;;;;;9.33;6.70;;;0.30;99.90;;;;;;5052567;28;20480;-83
2021/01/27 03:59:26;;;;;;;5.97;5.47;;;0.40;99.90;;;;;;5052723;28;20432;-84
2021/01/27 04:01:54;;;;;;;6.30;5.70;;;-0.20;99.90;;;;;;5052490;28;20414;-84
2021/01/27 04:04:21;;;;;;;6.77;6.17;;;-0.20;99.90;;;;;;5052657;28;20651;-82
2021/01/27 04:06:47;;;;;;;7.13;5.70;;;0.00;99.90;;;;;;5052492;28;20508;-83
2021/01/27 04:09:13;;;;;;;6.40;5.80;;;0.30;99.90;;;;;;5053630;28;20425;-83
2021/01/27 04:11:39;;;;;;;6.40;4.80;;;0.30;99.90;;;;;;5052329;28;20500;-83
2021/01/27 04:14:05;;;;;;;5.87;5.30;;;-0.10;99.90;;;;;;5053444;28;20411;-83
2021/01/27 04:16:31;;;;;;;10.43;6.07;;;0.40;99.90;;;;;;5052210;28;20226;-83
2021/01/27 04:19:03;;;;;;;8.70;6.23;;;0.40;99.90;;;;;;5053639;28;20411;-84
2021/01/27 04:21:28;;;;;;;7.50;5.93;;;0.00;99.90;;;;;;5053509;28;20468;-84
2021/01/27 04:23:54;;;;;;;7.17;5.47;;;-0.10;99.90;;;;;;5052781;28;20422;-84
2021/01/27 04:26:21;;;;;;;7.33;6.47;;;-0.20;99.90;;;;;;5053580;28;20176;-84
2021/01/27 04:28:50;;;;;;;8.50;7.10;;;0.00;99.90;;;;;;5052799;28;20191;-83
2021/01/27 04:31:16;;;;;;;7.67;6.87;;;-0.20;99.90;;;;;;5052295;28;20480;-83
2021/01/27 04:33:42;;;;;;;9.47;7.03;;;-0.10;99.90;;;;;;5052117;28;20426;-84
2021/01/27 04:36:08;;;;;;;13.60;6.10;;;-0.20;99.90;;;;;;5052160;28;20473;-83
2021/01/27 04:38:34;;;;;;;9.10;7.00;;;0.20;99.90;;;;;;5052006;28;20179;-84
2021/01/27 04:41:00;;;;;;;9.40;6.10;;;0.40;99.90;;;;;;5051912;28;20262;-84
2021/01/27 04:43:38;;;;;;;7.70;6.93;;;-0.20;99.90;;;;;;5052223;28;20176;-84
2021/01/27 04:46:20;;;;;;;9.03;6.30;;;0.20;99.90;;;;;;5052207;28;20425;-82
2021/01/27 04:49:05;;;;;;;7.00;5.53;;;0.50;99.90;;;;;;5052117;28;20941;-83
2021/01/27 04:51:50;;;;;;;6.77;5.07;;;0.30;99.90;;;;;;5051952;28;20471;-84
2021/01/27 04:54:35;;;;;;;8.10;6.53;;;0.40;99.90;;;;;;5051909;28;20425;-83
2021/01/27 04:57:15;;;;;;;7.63;5.63;;;0.50;99.90;;;;;;5053609;28;20458;-84
2021/01/27 05:00:08;;;;;;;10.10;6.57;;;0.50;99.90;;;;;;5052028;28;20416;-83
2021/01/27 05:03:01;;;;;;;8.87;7.90;;;0.30;99.90;;;;;;5051763;28;20426;-83
2021/01/27 05:05:28;;;;;;;11.40;7.13;;;0.40;99.90;;;;;;5052791;28;20437;-83
2021/01/27 05:08:15;;;;;;;8.60;6.80;;;0.50;99.90;;;;;;5051817;28;20418;-82
2021/01/27 05:10:53;;;;;;;7.23;6.53;;;0.40;99.90;;;;;;5051606;28;20502;-83
2021/01/27 05:13:36;;;;;;;7.23;6.50;;;0.40;99.90;;;;;;5053427;28;20479;-83
2021/01/27 05:16:11;;;;;;;6.30;5.70;;;0.50;99.90;;;;;;5051570;28;20561;-83
2021/01/27 05:18:37;;;;;;;6.47;5.87;;;0.60;99.90;;;;;;5051590;28;20422;-84
2021/01/27 05:21:04;;;;;;;6.30;5.00;;;0.20;99.90;;;;;;5051510;28;20497;-83
2021/01/27 05:23:30;;;;;;;6.13;5.53;;;0.50;99.90;;;;;;5051497;28;20179;-83
2021/01/27 05:26:10;;;;;;;7.77;6.03;;;0.30;99.90;;;;;;5051613;28;20482;-84
2021/01/27 05:28:44;;;;;;;7.40;6.20;;;0.70;99.90;;;;;;5051591;28;20261;-84
2021/01/27 05:31:10;;;;;;;5.77;4.63;;;0.60;99.90;;;;;;5055314;28;20446;-83
2021/01/27 05:33:50;;;;;;;7.07;5.83;;;0.50;99.90;;;;;;5055382;28;20417;-84
2021/01/27 05:36:27;;;;;;;5.50;5.00;;;0.20;99.90;;;;;;5055324;28;20247;-83
2021/01/27 05:39:13;;;;;;;4.67;3.70;;;0.20;99.90;;;;;;5055267;28;20418;-84
2021/01/27 05:41:39;;;;;;;5.63;4.40;;;0.90;99.90;;;;;;5055387;28;20430;-83
2021/01/27 05:44:26;;;;;;;5.90;5.30;;;0.40;99.90;;;;;;5056180;28;20422;-83
2021/01/27 05:46:52;;;;;;;7.20;5.60;;;0.30;99.90;;;;;;5054989;28;20430;-83
2021/01/27 05:49:29;;;;;;;7.17;5.43;;;0.70;99.90;;;;;;5055876;28;20953;-84
2021/01/27 05:52:13;;;;;;;8.10;5.57;;;0.90;99.90;;;;;;5055362;28;20175;-84
2021/01/27 05:54:38;;;;;;;14.13;8.80;;;0.80;99.90;;;;;;5054846;28;20454;-84
2021/01/27 05:57:17;;;;;;;7.10;5.87;;;1.10;99.90;;;;;;5055086;28;20540;-84
2021/01/27 05:59:46;;;;;;;4.77;4.27;;;0.90;99.90;;;;;;5054812;28;20207;-84
2021/01/27 06:02:12;;;;;;;8.73;5.57;;;0.90;99.90;;;;;;5054453;28;20414;-84
2021/01/27 06:04:39;;;;;;;6.33;5.80;;;0.40;99.90;;;;;;5054646;28;20433;-82
2021/01/27 06:07:19;;;;;;;9.00;7.33;;;0.50;99.90;;;;;;5054278;28;20434;-84
2021/01/27 06:09:49;;;;;;;10.73;7.80;;;0.80;99.90;;;;;;5054262;28;20414;-83
2021/01/27 06:12:20;;;;;;;10.23;7.50;;;1.00;99.90;;;;;;5055329;28;20430;-84
2021/01/27 06:15:12;;;;;;;5.00;3.83;;;0.90;99.90;;;;;;5054469;28;20433;-81
2021/01/27 06:17:50;;;;;;;5.03;4.33;;;0.60;99.90;;;;;;5054666;28;20452;-84
2021/01/27 06:20:15;;;;;;;13.13;9.50;;;1.00;99.90;;;;;;5054754;28;20422;-83
2021/01/27 06:22:59;;;;;;;16.53;11.37;;;0.70;99.90;;;;;;5054227;28;20430;-83
2021/01/27 06:25:43;;;;;;;96.67;55.30;;;1.00;99.90;;;;;;5055806;28;20214;-84
2021/01/27 06:28:39;;;;;;;7.80;6.33;;;1.10;99.90;;;;;;5054450;28;20492;-81
2021/01/27 06:31:14;;;;;;;4.80;3.90;;;1.10;99.90;;;;;;5055180;28;20486;-83
2021/01/27 06:34:00;;;;;;;4.73;4.33;;;1.10;99.90;;;;;;5054391;28;20418;-84
2021/01/27 06:36:51;;;;;;;5.60;5.10;;;1.30;99.90;;;;;;5054849;28;20473;-82
2021/01/27 06:39:45;;;;;;;5.63;4.80;;;1.20;99.90;;;;;;5053907;28;20418;-84
2021/01/27 06:42:34;;;;;;;6.53;5.90;;;1.20;99.90;;;;;;5053840;28;20788;-83
2021/01/27 06:45:24;;;;;;;5.03;4.53;;;1.30;99.90;;;;;;5035225;28;20422;-83
2021/01/27 06:48:01;;;;;;;9.07;4.77;;;1.10;99.90;;;;;;5055265;28;20426;-84
2021/01/27 06:50:45;;;;;;;4.47;3.50;;;1.30;99.90;;;;;;5054143;28;20786;-83
2021/01/27 06:53:19;;;;;;;4.83;4.27;;;1.30;99.90;;;;;;5053791;28;20862;-83
2021/01/27 06:56:04;;;;;;;5.97;4.80;;;1.10;99.90;;;;;;5053856;28;20460;-83
2021/01/27 06:58:53;;;;;;;5.60;3.83;;;1.30;99.90;;;;;;5056120;28;20437;-83
2021/01/27 07:01:40;;;;;;;5.40;3.70;;;1.20;99.90;;;;;;5054075;28;20434;-82
2021/01/27 07:04:09;;;;;;;5.40;3.63;;;1.50;99.90;;;;;;5053463;28;20416;-83
2021/01/27 07:07:03;;;;;;;5.17;4.67;;;1.30;99.90;;;;;;5054593;28;20417;-83
2021/01/27 07:09:34;;;;;;;3.43;3.17;;;1.40;99.90;;;;;;5054438;28;20413;-84
2021/01/27 07:12:16;;;;;;;3.90;3.50;;;1.50;99.90;;;;;;5053167;28;20930;-84
2021/01/27 07:14:53;;;;;;;5.23;4.73;;;1.40;99.90;;;;;;5053484;28;20584;-84
2021/01/27 07:17:38;;;;;;;4.90;3.27;;;1.30;99.90;;;;;;5046836;28;20568;-84
2021/01/27 07:20:15;;;;;;;4.57;4.07;;;1.30;99.90;;;;;;5053001;28;20422;-83
2021/01/27 07:23:10;;;;;;;4.00;3.37;;;1.70;99.90;;;;;;5052220;28;20929;-85
2021/01/27 07:26:20;;;;;;;3.13;2.50;;;1.40;99.90;;;;;;5052432;28;20429;-83
2021/01/27 07:28:55;;;;;;;3.87;3.40;;;1.60;99.90;;;;;;5052461;28;20457;-84
2021/01/27 07:31:50;;;;;;;5.93;2.37;;;1.10;99.90;;;;;;5048854;28;20502;-83
2021/01/27 07:34:43;;;;;;;4.27;2.70;;;1.40;99.90;;;;;;5044348;28;21023;-83
2021/01/27 07:37:21;;;;;;;3.90;2.50;;;1.60;99.90;;;;;;5037208;28;20478;-83
2021/01/27 07:40:09;;;;;;;2.93;1.40;;;1.50;99.90;;;;;;5051870;28;20492;-83
2021/01/27 07:42:38;;;;;;;1.50;1.40;;;1.40;99.90;;;;;;5051218;28;20422;-84
2021/01/27 07:45:09;;;;;;;1.70;1.60;;;1.40;99.90;;;;;;5051631;28;20492;-82
2021/01/27 07:47:46;;;;;;;2.40;2.20;;;1.50;99.90;;;;;;5053278;28;20421;-84
2021/01/27 07:50:14;;;;;;;1.20;1.10;;;1.20;99.90;;;;;;5051652;28;20434;-83
2021/01/27 07:53:22;;;;;;;1.40;1.30;;;1.00;99.90;;;;;;5051507;28;20426;-83
2021/01/27 07:56:05;;;;;;;3.17;1.77;;;1.20;99.90;;;;;;5048119;28;20458;-82
2021/01/27 07:58:59;;;;;;;1.50;1.40;;;1.30;99.90;;;;;;5051287;28;20434;-83
2021/01/27 08:01:46;;;;;;;1.60;1.50;;;1.10;99.90;;;;;;5051363;28;20422;-83
2021/01/27 08:04:43;;;;;;;1.50;1.40;;;1.30;99.90;;;;;;5051252;28;20467;-83
2021/01/27 08:07:24;;;;;;;1.87;1.77;;;1.10;99.90;;;;;;5051776;28;20419;-81
2021/01/27 08:09:52;;;;;;;1.63;1.53;;;1.30;99.90;;;;;;5054696;28;20479;-88
2021/01/27 08:12:37;;;;;;;4.20;2.10;;;1.30;99.90;;;;;;5051051;28;20418;-83
2021/01/27 08:15:06;;;;;;;4.43;2.10;;;1.20;99.90;;;;;;5051674;28;20552;-83
2021/01/27 08:17:46;;;;;;;2.43;1.40;;;1.20;99.90;;;;;;5051149;28;20466;-82
2021/01/27 08:20:25;;;;;;;1.97;1.20;;;0.90;99.90;;;;;;5051188;28;20416;-84
2021/01/27 08:22:53;;;;;;;2.20;1.50;;;1.30;99.90;;;;;;5052183;28;20422;-83
2021/01/27 08:25:58;;;;;;;1.43;1.33;;;1.20;99.90;;;;;;5051421;28;20982;-82
2021/01/27 08:28:26;;;;;;;2.57;2.37;;;1.20;99.90;;;;;;5051025;28;20430;-83
2021/01/27 08:31:10;;;;;;;2.20;2.10;;;0.70;99.90;;;;;;5051042;28;20429;-83
2021/01/27 08:33:47;;;;;;;6.23;3.60;;;1.10;99.90;;;;;;5051204;28;20449;-82
2021/01/27 08:36:29;;;;;;;4.30;2.90;;;1.10;99.90;;;;;;5052351;28;20496;-83
2021/01/27 08:38:55;;;;;;;4.10;2.60;;;1.10;99.90;;;;;;5050893;28;20559;-83
2021/01/27 08:41:38;;;;;;;5.00;2.40;;;0.60;99.90;;;;;;5050754;28;20505;-83
2021/01/27 08:44:06;;;;;;;2.67;2.37;;;1.10;99.90;;;;;;5067690;28;20241;-84
2021/01/27 08:46:34;;;;;;;5.87;2.37;;;0.50;99.90;;;;;;5050876;28;20501;-84
2021/01/27 08:49:00;;;;;;;2.83;2.53;;;1.10;99.90;;;;;;5067792;28;20469;-84
2021/01/27 08:51:46;;;;;;;2.50;2.30;;;0.50;99.90;;;;;;5050866;28;20415;-79
2021/01/27 08:54:39;;;;;;;3.60;3.00;;;1.00;99.90;;;;;;5052079;28;20471;-83
2021/01/27 08:57:30;;;;;;;3.50;3.10;;;1.00;99.90;;;;;;5067963;28;20481;-84
2021/01/27 09:00:08;;;;;;;4.37;3.03;;;1.00;99.90;;;;;;5067639;28;20454;-84
2021/01/27 09:02:44;;;;;;;4.03;3.07;;;0.90;99.90;;;;;;5067385;28;20480;-82
2021/01/27 09:05:19;;;;;;;5.80;3.60;;;1.00;99.90;;;;;;5069680;28;20501;-84
2021/01/27 09:08:04;;;;;;;2.70;2.50;;;0.90;99.90;;;;;;5071379;28;20906;-85
2021/01/27 09:10:36;;;;;;;3.53;3.23;;;0.80;99.90;;;;;;5054560;28;21106;-81
2021/01/27 09:13:28;;;;;;;4.00;3.63;;;0.80;99.90;;;;;;5053936;28;20419;-84
2021/01/27 09:16:01;;;;;;;5.90;4.33;;;0.80;99.90;;;;;;5054528;28;20465;-84
2021/01/27 09:18:27;;;;;;;5.23;4.60;;;0.80;99.90;;;;;;5055554;28;20415;-80
2021/01/27 09:20:52;;;;;;;6.10;4.53;;;0.50;99.90;;;;;;5055478;28;20403;-84
2021/01/27 09:23:21;;;;;;;4.90;3.63;;;0.50;99.90;;;;;;5054471;28;20947;-84
2021/01/27 09:25:49;;;;;;;4.40;4.00;;;0.80;99.90;;;;;;5054255;28;20203;-83
2021/01/27 09:28:23;;;;;;;4.10;3.70;;;0.40;99.90;;;;;;5054521;28;20426;-84
2021/01/27 09:30:49;;;;;;;4.30;4.00;;;0.60;99.90;;;;;;5054222;28;20418;-84
2021/01/27 09:33:27;;;;;;;3.90;3.50;;;0.80;99.90;;;;;;5053947;28;20430;-84
2021/01/27 09:36:08;;;;;;;5.07;3.97;;;0.70;99.90;;;;;;5053948;28;20474;-84
2021/01/27 09:38:34;;;;;;;3.83;3.40;;;0.60;99.90;;;;;;5055595;28;20402;-83
2021/01/27 09:41:07;;;;;;;6.87;5.03;;;0.70;99.90;;;;;;5054150;28;20426;-84
2021/01/27 09:43:37;;;;;;;5.03;4.63;;;0.60;99.90;;;;;;5053779;28;20423;-83
2021/01/27 09:46:20;;;;;;;4.37;3.97;;;0.30;99.90;;;;;;5053935;28;20786;-84
2021/01/27 09:48:47;;;;;;;3.87;3.27;;;0.60;99.90;;;;;;5054777;28;20497;-83
2021/01/27 09:51:15;;;;;;;6.90;4.03;;;0.10;99.90;;;;;;5054031;28;20436;-84
2021/01/27 09:53:41;;;;;;;3.63;3.33;;;0.50;99.90;;;;;;5053983;28;20505;-83
2021/01/27 09:56:09;;;;;;;7.07;4.70;;;0.70;99.90;;;;;;5055418;28;20493;-82
2021/01/27 09:58:42;;;;;;;5.23;4.20;;;0.60;99.90;;;;;;5053752;28;20423;-81
2021/01/27 10:01:15;;;;;;;3.40;3.10;;;0.60;99.90;;;;;;5055096;28;20423;-85
2021/01/27 10:03:42;;;;;;;4.20;3.70;;;0.20;99.90;;;;;;5053839;28;20786;-84
2021/01/27 10:06:41;;;;;;;4.67;2.50;;;0.70;99.90;;;;;;5053675;28;20422;-83
2021/01/27 10:09:12;;;;;;;4.23;3.83;;;0.70;99.90;;;;;;5053537;28;20419;-85
2021/01/27 10:11:39;;;;;;;4.47;3.73;;;0.70;99.90;;;;;;5054318;28;20467;-83
2021/01/27 10:14:22;;;;;;;5.10;3.57;;;0.60;99.90;;;;;;5053576;28;20430;-84
2021/01/27 10:16:48;;;;;;;3.80;3.50;;;0.80;99.90;;;;;;5054670;28;20470;-84
2021/01/27 10:19:13;;;;;;;3.57;3.37;;;0.50;99.90;;;;;;5053283;28;20415;-83
2021/01/27 10:21:47;;;;;;;3.67;3.37;;;0.70;99.90;;;;;;5053839;28;20183;-85
2021/01/27 10:24:50;;;;;;;5.87;2.87;;;0.50;99.90;;;;;;5053483;28;20415;-84
2021/01/27 10:27:20;;;;;;;4.30;3.60;;;0.90;99.90;;;;;;5053674;28;20921;-83
2021/01/27 10:29:46;;;;;;;7.60;4.00;;;1.00;99.90;;;;;;5053116;28;20419;-84
2021/01/27 10:32:20;;;;;;;2.90;2.70;;;0.50;99.90;;;;;;5053171;28;20494;-84
2021/01/27 10:34:48;;;;;;;9.80;5.07;;;0.80;99.90;;;;;;5053041;28;20430;-84
2021/01/27 10:37:40;;;;;;;3.93;3.63;;;0.40;99.90;;;;;;5052929;28;20996;-85
2021/01/27 10:40:10;;;;;;;3.80;2.30;;;0.90;99.90;;;;;;5032829;28;20865;-83
2021/01/27 10:42:38;;;;;;;3.80;3.30;;;0.90;99.90;;;;;;5049332;28;20407;-84
2021/01/27 10:45:22;;;;;;;4.30;3.90;;;0.20;99.90;;;;;;5033179;28;20938;-83
2021/01/27 10:47:56;;;;;;;3.57;3.27;;;0.80;99.90;;;;;;5049851;28;20794;-83
2021/01/27 10:50:22;;;;;;;2.50;2.30;;;0.30;99.90;;;;;;5049522;28;21000;-83
2021/01/27 10:52:50;;;;;;;4.00;3.60;;;0.70;99.90;;;;;;5033178;28;20427;-84
2021/01/27 10:55:17;;;;;;;7.57;6.27;;;0.60;99.90;;;;;;5032544;28;20185;-84
2021/01/27 10:57:43;;;;;;;3.47;3.13;;;0.90;99.90;;;;;;5032482;28;20483;-83
2021/01/27 11:00:10;;;;;;;4.33;3.00;;;0.30;99.90;;;;;;5032330;28;20420;-84
2021/01/27 11:02:36;;;;;;;7.00;4.73;;;0.60;99.90;;;;;;5032282;28;20435;-83
2021/01/27 11:05:02;;;;;;;4.53;4.13;;;0.90;99.90;;;;;;5032309;28;20455;-84
2021/01/27 11:07:28;;;;;;;4.13;3.73;;;0.80;99.90;;;;;;5032208;28;20219;-83
2021/01/27 11:09:53;;;;;;;3.30;3.00;;;0.60;99.90;;;;;;5032179;28;20477;-81
2021/01/27 11:12:19;;;;;;;4.53;3.40;;;0.30;99.90;;;;;;5051039;28;20172;-84
2021/01/27 11:14:45;;;;;;;8.60;2.27;;;0.70;99.90;;;;;;5052042;28;20184;-84
2021/01/27 11:17:11;;;;;;;3.30;3.00;;;0.80;99.90;;;;;;5051611;28;20207;-83
2021/01/27 11:19:36;;;;;;;5.53;2.97;;;0.80;99.90;;;;;;5052115;28;20183;-84
2021/01/27 11:22:02;;;;;;;4.43;3.63;;;0.40;99.90;;;;;;5051969;28;20175;-79
2021/01/27 11:24:28;;;;;;;3.70;2.80;;;0.40;99.90;;;;;;5051629;28;20179;-85
2021/01/27 11:26:54;;;;;;;3.13;2.93;;;0.70;99.90;;;;;;5050675;28;20480;-84
2021/01/27 11:29:19;;;;;;;3.43;3.10;;;0.90;99.90;;;;;;5051760;28;20532;-84
2021/01/27 11:31:45;;;;;;;2.63;2.53;;;0.80;99.90;;;;;;5051848;28;20225;-85
2021/01/27 11:34:10;;;;;;;3.03;2.83;;;1.00;99.90;;;;;;5051669;28;20201;-83
2021/01/27 11:36:36;;;;;;;3.77;2.40;;;1.10;99.90;;;;;;5052743;28;20210;-84
2021/01/27 11:39:03;;;;;;;3.23;2.93;;;1.00;99.90;;;;;;5052030;28;20226;-84
2021/01/27 11:41:28;;;;;;;6.37;2.90;;;0.80;99.90;;;;;;5051449;28;20250;-84
2021/01/27 11:43:54;;;;;;;3.80;3.50;;;0.80;99.90;;;;;;5053041;28;20953;-83
2021/01/27 11:46:20;;;;;;;4.00;3.60;;;1.00;99.90;;;;;;5051586;28;20172;-85
2021/01/27 11:48:46;;;;;;;3.50;3.20;;;0.80;99.90;;;;;;5049041;28;20198;-80
2021/01/27 11:51:15;;;;;;;5.00;3.20;;;0.90;99.90;;;;;;5051862;28;20172;-84
2021/01/27 11:53:42;;;;;;;3.87;3.57;;;1.10;99.90;;;;;;5053891;28;20521;-84
2021/01/27 11:56:09;;;;;;;2.70;2.47;;;0.80;99.90;;;;;;5052224;28;20470;-83
2021/01/27 11:58:35;;;;;;;3.27;2.93;;;1.10;99.90;;;;;;5052957;28;20426;-84
2021/01/27 12:01:01;;;;;;;3.13;2.20;;;0.70;99.90;;;;;;5052846;28;20434;-84
2021/01/27 12:03:27;;;;;;;2.40;2.30;;;0.60;99.90;;;;;;5052705;28;20453;-84
2021/01/27 12:05:53;;;;;;;2.73;2.20;;;1.10;99.90;;;;;;5052853;28;20449;-84
2021/01/27 12:08:19;;;;;;;4.60;3.33;;;1.30;99.90;;;;;;5052904;28;20179;-83
2021/01/27 12:10:46;;;;;;;3.80;2.93;;;0.80;99.90;;;;;;5052400;28;20275;-84
2021/01/27 12:13:12;;;;;;;3.07;2.87;;;0.70;99.90;;;;;;5052549;28;20426;-84
2021/01/27 12:15:37;;;;;;;3.13;2.60;;;0.90;99.90;;;;;;5052293;28;20422;-84
2021/01/27 12:18:06;;;;;;;7.50;3.17;;;0.60;99.90;;;;;;5052955;28;20627;-83
2021/01/27 12:20:32;;;;;;;3.87;3.57;;;0.70;99.90;;;;;;5052149;28;20202;-82
2021/01/27 12:22:58;;;;;;;5.53;3.87;;;0.90;99.90;;;;;;5052279;28;20881;-85
2021/01/27 12:25:23;;;;;;;3.93;3.50;;;0.90;99.90;;;;;;5054088;28;20949;-83
2021/01/27 12:27:49;;;;;;;3.63;3.30;;;1.20;99.90;;;;;;5052042;28;20498;-84
2021/01/27 12:30:15;;;;;;;4.17;3.77;;;0.80;99.90;;;;;;5050217;28;20191;-82
2021/01/27 12:32:41;;;;;;;4.73;3.37;;;1.30;99.90;;;;;;5050381;28;20285;-82
2021/01/27 12:35:09;;;;;;;3.30;3.00;;;1.10;99.90;;;;;;5050677;28;20427;-84
2021/01/27 12:37:35;;;;;;;4.90;4.40;;;1.10;99.90;;;;;;5052196;28;20222;-84
2021/01/27 12:40:00;;;;;;;4.70;4.30;;;1.40;99.90;;;;;;5058460;28;20508;-86
2021/01/27 12:42:26;;;;;;;4.23;3.93;;;1.00;99.90;;;;;;5057969;28;20183;-83
2021/01/27 12:44:52;;;;;;;4.43;3.40;;;1.00;99.90;;;;;;5057279;28;20233;-83
2021/01/27 12:47:22;;;;;;;3.77;3.47;;;1.20;99.90;;;;;;5055258;28;20184;-83
2021/01/27 12:49:47;;;;;;;5.03;3.87;;;0.70;99.90;;;;;;5056779;28;20258;-84
2021/01/27 12:52:13;;;;;;;5.17;4.20;;;1.40;99.90;;;;;;5057074;28;20501;-83
2021/01/27 12:54:38;;;;;;;4.17;3.77;;;1.20;99.90;;;;;;5054694;28;20186;-84
2021/01/27 12:57:04;;;;;;;3.27;3.07;;;0.90;99.90;;;;;;5055512;28;20264;-83
2021/01/27 12:59:30;;;;;;;3.80;2.17;;;0.70;99.90;;;;;;5053380;28;20185;-84
2021/01/27 13:01:55;;;;;;;6.67;3.93;;;1.30;99.90;;;;;;5057536;28;20184;-83
2021/01/27 13:04:21;;;;;;;3.50;3.20;;;1.10;99.90;;;;;;5057093;28;20534;-83
2021/01/27 13:06:46;;;;;;;4.40;4.00;;;1.00;99.90;;;;;;5057248;28;20839;-83
2021/01/27 13:09:12;;;;;;;4.90;3.40;;;1.30;99.90;;;;;;5052759;28;20263;-83
2021/01/27 13:11:38;;;;;;;4.93;3.40;;;0.80;99.90;;;;;;5055627;28;20188;-82
2021/01/27 13:14:03;;;;;;;5.53;4.03;;;1.30;99.90;;;;;;5056513;28;20184;-82
2021/01/27 13:16:29;;;;;;;3.97;3.67;;;1.70;99.90;;;;;;5057254;28;20265;-82
2021/01/27 13:18:54;;;;;;;4.07;3.10;;;1.30;99.90;;;;;;5057364;28;20632;-82
2021/01/27 13:21:20;;;;;;;4.60;4.20;;;1.20;99.90;;;;;;5057358;28;20176;-82
2021/01/27 13:23:48;;;;;;;4.07;3.77;;;1.10;99.90;;;;;;5053331;28;20944;-82
2021/01/27 13:26:17;;;;;;;9.90;5.93;;;1.50;99.90;;;;;;5056367;28;20188;-83